Aeroporto :
LOGIN :

Iscrizione | Disclaimer

   EN    FR    IT 

 










Sommario :    VFR   VFR Marginale   IFR   IFR Intensivo   IFR Molto Intensivo
Visibilità : 
Base nubi : 
>= 8 km
>= 3000ft
5 / 8 km
1000 / 3000 ft
1500m / 5 km
500 / 1000 ft
800 / 1500m
200 / 500 ft
< 800m
< 200 ft
Simboli :   Temporali  Nebbia  Neve Forte  Precipitazioni Forti  Vento > 20 kt
SIGMETs :   Varie  Temporali  Ghiacco  Turbolenza  Onda orograficha  Ceneri Vulcaniche






- Altitudine del aeroporto : -11 ft
- Codice IATA : AMS


EHAM - Amsterdam Schiphol

ULTIMO METAR :
  • 252125Z 11004KT CAVOK 12/11 Q1035 NOSIG

METARs OBSOLETI :
  • 252055Z 10004KT CAVOK 13/11 Q1035 NOSIG
  • 252025Z 10004KT CAVOK 13/10 Q1035 NOSIG
  • 251955Z 10005KT CAVOK 14/10 Q1034 NOSIG
  • 251925Z 02003KT 340V060 CAVOK 15/10 Q1034 NOSIG
  • 251855Z 34005KT 310V030 CAVOK 16/10 Q1034 NOSIG

TAF TAF EHAM
Valido dal 25 a 18 ore il 27 a 00 ore UTC


251718Z 2518/2624 33010KT CAVOK
BECMG 2518/2520 VRB03KT
PROB40
TEMPO 2601/2606 4000 MIFG BCFG
BECMG 2612/2614 31010KT
BECMG 2617/2620 34004KT



MetMap, La meteo Aeronautica in un colpo d'occhio ! - Copyright ORBIFLY Dicembre 2007 - Disclaimer

ORBIFLY MET'MAP TEAM :

Programmazione e sviluppo : Alexandra Zaïnal
Concezione : Baudouin d'Aumeries
Aiuto per la programmazione : Marc-Olivier Méhu
Supporto tecnico e logistico : Manuel Goepfert
Aiuto per la traduzione : Arnaldo La Scala

Contatto : metmap@orbifly.com




FONTI E CREDITI :

   NOAA